Time;durP1;ratioP1;P1;durP2;ratioP2;P2;SDS_P1;SDS_P2;PMS_P1;PMS_P2;Temp;Humidity;BMP_temperature;BMP_pressure;BME280_temperature;BME280_humidity;BME280_pressure;Samples;Min_cycle;Max_cycle;Signal;HPM_P1;HPM_P2
2022/09/01 00:01:17;;;;;;;4.20;1.70;;;;;;;13.07;83.41;99320.48;1708884;84;21118;-71
2022/09/01 00:03:40;;;;;;;2.92;1.52;;;;;;;13.03;83.68;99322.87;1706344;84;21015;-72
2022/09/01 00:06:09;;;;;;;2.22;1.65;;;;;;;13.00;83.93;99325.65;1708846;84;21100;-71
2022/09/01 00:08:35;;;;;;;2.17;1.90;;;;;;;12.98;84.12;99323.61;1708834;84;21027;-71
2022/09/01 00:11:02;;;;;;;2.17;1.70;;;;;;;12.95;84.20;99326.84;1709128;84;20963;-71
2022/09/01 00:13:32;;;;;;;3.42;1.70;;;;;;;12.92;84.25;99328.30;1708742;83;21118;-71
2022/09/01 00:16:02;;;;;;;3.45;1.72;;;;;;;12.89;84.50;99324.09;1708822;84;21007;-72
2022/09/01 00:18:31;;;;;;;2.67;1.90;;;;;;;12.88;84.86;99325.01;1709064;84;21046;-71
2022/09/01 00:20:58;;;;;;;4.40;1.65;;;;;;;12.87;85.08;99322.02;1708816;83;21055;-71
2022/09/01 00:23:26;;;;;;;4.17;1.77;;;;;;;12.85;85.32;99323.86;1709017;84;21185;-71
2022/09/01 00:25:53;;;;;;;6.42;1.70;;;;;;;12.86;85.53;99328.62;1708784;84;21164;-71
2022/09/01 00:28:20;;;;;;;2.27;1.32;;;;;;;12.84;85.47;99330.00;1708796;84;21039;-71
2022/09/01 00:30:47;;;;;;;3.22;1.67;;;;;;;12.81;85.55;99328.86;1647363;87;21070;-71
2022/09/01 00:33:13;;;;;;;2.50;1.60;;;;;;;12.78;85.68;99329.05;1708861;84;20966;-71
2022/09/01 00:35:40;;;;;;;3.50;1.98;;;;;;;12.74;86.02;99329.66;1708901;84;21018;-71
2022/09/01 00:38:06;;;;;;;4.60;2.30;;;;;;;12.73;86.33;99333.66;1647381;87;21121;-71
2022/09/01 00:40:33;;;;;;;4.03;1.80;;;;;;;12.72;86.50;99326.75;1708787;84;21490;-71
2022/09/01 00:42:59;;;;;;;2.40;1.72;;;;;;;12.71;86.55;99328.52;1708887;84;20998;-71
2022/09/01 00:45:26;;;;;;;4.28;1.72;;;;;;;12.72;86.40;99327.59;1708871;84;20974;-71
2022/09/01 00:47:52;;;;;;;6.30;1.80;;;;;;;12.72;86.11;99331.97;1708865;84;20963;-71
2022/09/01 00:50:19;;;;;;;3.12;1.62;;;;;;;12.70;86.03;99326.83;1708817;84;21121;-71
2022/09/01 00:52:50;;;;;;;3.72;1.80;;;;;;;12.70;85.94;99329.44;1708854;84;21011;-71
2022/09/01 00:55:28;;;;;;;3.72;2.12;;;;;;;12.70;86.06;99339.03;1708835;84;21015;-71
2022/09/01 00:57:55;;;;;;;3.50;2.30;;;;;;;12.71;86.30;99328.52;1708278;83;20958;-71
2022/09/01 01:00:26;;;;;;;5.87;1.80;;;;;;;12.70;86.66;99328.13;1709010;84;20979;-71
2022/09/01 01:02:54;;;;;;;3.47;2.12;;;;;;;12.70;86.87;99329.89;1709055;84;21542;-72
2022/09/01 01:05:23;;;;;;;2.77;1.82;;;;;;;12.66;87.06;99331.81;1709017;84;20991;-71
2022/09/01 01:07:50;;;;;;;2.58;1.75;;;;;;;12.65;87.21;99327.98;1708982;84;21003;-72
2022/09/01 01:10:18;;;;;;;2.72;2.17;;;;;;;12.64;87.46;99332.81;1708934;84;21557;-71
2022/09/01 01:12:44;;;;;;;3.10;1.92;;;;;;;12.63;87.69;99329.82;1709020;84;20971;-72
2022/09/01 01:15:11;;;;;;;2.30;1.95;;;;;;;12.62;87.87;99328.98;1688515;84;21130;-72
2022/09/01 01:17:38;;;;;;;3.72;1.92;;;;;;;12.60;87.99;99323.45;1647589;87;21014;-72
2022/09/01 01:23:15;;;;;;;5.50;1.85;;;;;;;12.53;88.16;99328.63;1709084;84;21010;-73
2022/09/01 01:25:56;;;;;;;3.60;2.10;;;;;;;12.48;88.24;99331.92;1708929;83;20943;-72
2022/09/01 01:28:30;;;;;;;3.30;1.90;;;;;;;12.41;88.41;99338.75;1708999;84;21474;-72
2022/09/01 01:31:14;;;;;;;2.22;1.72;;;;;;;12.36;88.57;99336.86;1708882;84;21037;-72
2022/09/01 01:33:51;;;;;;;6.50;2.10;;;;;;;12.32;88.72;99330.11;1709087;84;21015;-72
2022/09/01 01:36:34;;;;;;;3.50;2.05;;;;;;;12.28;88.97;99338.16;1708973;84;21062;-72
2022/09/01 01:39:02;;;;;;;3.95;1.62;;;;;;;12.25;89.37;99328.72;1704942;84;21423;-73
2022/09/01 01:41:30;;;;;;;3.87;2.33;;;;;;;12.25;89.80;99324.81;1647623;87;21841;-71
2022/09/01 01:43:58;;;;;;;7.03;1.77;;;;;;;12.24;90.03;99321.81;1708897;84;21529;-71
2022/09/01 01:46:26;;;;;;;5.00;1.90;;;;;;;12.24;90.35;99325.73;1647457;86;20970;-71
2022/09/01 01:48:54;;;;;;;4.15;2.00;;;;;;;12.24;90.49;99325.73;1708931;84;21450;-71
2022/09/01 01:51:23;;;;;;;5.67;2.55;;;;;;;12.23;90.34;99325.34;1709026;84;21046;-71
2022/09/01 01:53:51;;;;;;;3.00;2.15;;;;;;;12.20;90.39;99324.19;1647434;87;21636;-72
2022/09/01 01:56:19;;;;;;;2.35;1.72;;;;;;;12.18;90.47;99323.45;1709153;84;21046;-71
2022/09/01 01:58:45;;;;;;;3.62;2.05;;;;;;;12.15;90.46;99316.23;1708952;84;20963;-71
2022/09/01 02:01:12;;;;;;;4.42;2.20;;;;;;;12.12;90.60;99310.71;1647450;87;21079;-71
2022/09/01 02:03:39;;;;;;;7.53;2.75;;;;;;;12.12;90.67;99308.56;1708926;84;21054;-71
2022/09/01 02:06:08;;;;;;;7.55;2.20;;;;;;;12.13;90.49;99311.56;1709036;84;21183;-71
2022/09/01 02:08:36;;;;;;;2.70;1.92;;;;;;;12.08;90.32;99311.32;1708859;83;20998;-72
2022/09/01 02:11:04;;;;;;;2.90;1.98;;;;;;;12.05;90.25;99304.95;1708961;84;21008;-71
2022/09/01 02:13:30;;;;;;;4.42;2.27;;;;;;;12.04;90.24;99308.48;1709651;83;21004;-71
2022/09/01 02:16:01;;;;;;;4.08;2.15;;;;;;;12.03;90.35;99310.70;1716867;83;21495;-72
2022/09/01 02:18:35;;;;;;;3.50;2.20;;;;;;;12.00;90.65;99307.40;1716844;83;21261;-72
2022/09/01 02:21:09;;;;;;;3.98;2.40;;;;;;;11.99;90.73;99306.55;1716881;83;20950;-72
2022/09/01 02:23:34;;;;;;;4.20;2.42;;;;;;;11.96;91.02;99302.82;1716718;83;20966;-72
2022/09/01 02:26:01;;;;;;;3.77;2.33;;;;;;;11.94;91.04;99305.96;1716799;83;21482;-72
2022/09/01 02:28:35;;;;;;;7.53;2.62;;;;;;;11.94;91.09;99308.56;1716836;83;21467;-72
2022/09/01 02:31:03;;;;;;;;;;;;;;;11.94;91.33;99311.17;1719392;83;21149;-72
2022/09/01 02:33:30;;;;;;;3.72;2.72;;;;;;;11.95;91.46;99310.25;1716795;83;20173;-72
2022/09/01 02:36:03;;;;;;;3.75;2.50;;;;;;;11.95;91.52;99314.63;1716768;83;21089;-72
2022/09/01 02:38:32;;;;;;;3.00;2.43;;;;;;;11.94;91.66;99312.48;1717059;83;20994;-72
2022/09/01 02:41:01;;;;;;;3.45;2.17;;;;;;;11.93;91.61;99310.79;1716943;83;21554;-72
2022/09/01 02:43:30;;;;;;;4.30;2.85;;;;;;;11.92;91.69;99309.56;1716840;83;21214;-72
2022/09/01 02:45:58;;;;;;;3.98;2.40;;;;;;;11.91;92.00;99322.20;1716768;83;21085;-71
2022/09/01 02:48:36;;;;;;;3.08;2.33;;;;;;;11.89;92.11;99316.22;1716847;83;21003;-71
2022/09/01 02:51:07;;;;;;;5.12;2.60;;;;;;;11.86;92.26;99313.30;1716808;83;20978;-71
2022/09/01 02:53:34;;;;;;;4.08;2.30;;;;;;;11.86;92.38;99317.67;1716869;83;21474;-71
2022/09/01 02:56:03;;;;;;;4.58;2.33;;;;;;;11.87;92.47;99318.05;1716778;83;21222;-71
2022/09/01 02:58:33;;;;;;;3.15;2.40;;;;;;;11.87;92.60;99327.17;1716850;83;21509;-71
2022/09/01 03:00:59;;;;;;;6.40;2.37;;;;;;;11.86;92.71;99328.09;1717036;83;21046;-71
2022/09/01 03:03:27;;;;;;;5.92;2.35;;;;;;;11.87;92.88;99331.08;1716770;83;20975;-71
2022/09/01 03:05:55;;;;;;;6.42;2.72;;;;;;;11.88;92.95;99329.70;1716849;83;21049;-71
2022/09/01 03:08:23;;;;;;;6.92;3.02;;;;;;;11.88;92.93;99328.86;1716795;83;21145;-72
2022/09/01 03:10:52;;;;;;;4.25;2.70;;;;;;;11.89;93.11;99331.86;1716716;83;21002;-72
2022/09/01 03:13:22;;;;;;;6.58;4.37;;;;;;;11.92;93.25;99332.55;1716868;83;21050;-72
2022/09/01 03:15:49;;;;;;;7.20;3.65;;;;;;;11.94;93.13;99336.39;1709423;83;21006;-72
2022/09/01 03:18:19;;;;;;;7.15;3.35;;;;;;;11.98;93.00;99344.45;1709093;84;21076;-72
2022/09/01 03:20:46;;;;;;;3.25;2.60;;;;;;;12.01;92.61;99346.88;1709004;84;21847;-72
2022/09/01 03:23:14;;;;;;;6.05;2.50;;;;;;;12.03;92.72;99351.56;1708877;84;20951;-72
2022/09/01 03:25:42;;;;;;;4.83;2.42;;;;;;;12.05;93.33;99349.27;1647413;87;21559;-72
2022/09/01 03:28:12;;;;;;;4.75;2.72;;;;;;;12.08;93.63;99341.76;1647488;87;21556;-72
2022/09/01 03:30:45;;;;;;;8.10;3.15;;;;;;;12.12;93.73;99344.61;1708866;84;21542;-72
2022/09/01 03:33:12;;;;;;;5.80;2.55;;;;;;;12.19;93.71;99351.18;1707867;84;21412;-72
2022/09/01 03:35:40;;;;;;;4.92;2.67;;;;;;;12.35;93.70;99352.58;1647292;87;21023;-70
2022/09/01 03:38:07;;;;;;;4.90;2.30;;;;;;;12.58;92.93;99360.09;1647396;87;21116;-71
2022/09/01 03:40:35;;;;;;;4.30;2.20;;;;;;;12.79;92.29;99348.16;1708882;84;21018;-71
2022/09/01 03:43:03;;;;;;;5.90;2.10;;;;;;;12.92;91.51;99352.64;1708823;84;20970;-71
2022/09/01 03:45:34;;;;;;;8.68;3.02;;;;;;;13.11;91.10;99352.05;1708877;84;21136;-70
2022/09/01 03:48:00;;;;;;;3.92;2.87;;;;;;;13.40;89.93;99350.48;1647316;87;21061;-72
2022/09/01 03:50:27;;;;;;;8.73;2.98;;;;;;;13.77;88.65;99348.00;1708879;84;21434;-70
2022/09/01 03:52:57;;;;;;;8.13;3.10;;;;;;;14.20;87.42;99348.59;1709121;84;21002;-70
2022/09/01 03:55:28;;;;;;;7.87;2.83;;;;;;;14.56;85.57;99345.64;1688634;84;20999;-70
2022/09/01 03:57:59;;;;;;;5.45;3.33;;;;;;;15.23;82.44;99348.90;1708898;84;21144;-69
2022/09/01 04:00:28;;;;;;;7.22;3.08;;;;;;;15.23;82.44;99348.90;1708859;84;21061;-70
2022/09/01 04:02:57;;;;;;;9.88;3.10;;;;;;;15.64;80.79;99355.48;1647435;87;21476;-70
2022/09/01 04:05:27;;;;;;;8.10;3.55;;;;;;;16.02;78.76;99347.76;1647406;87;21032;-69
2022/09/01 04:07:57;;;;;;;4.90;3.47;;;;;;;16.27;76.83;99350.92;1709170;84;20959;-69
2022/09/01 04:10:24;;;;;;;6.25;2.67;;;;;;;16.38;75.46;99356.78;1647396;86;21100;-71
2022/09/01 04:12:51;;;;;;;3.72;2.98;;;;;;;16.42;74.85;99351.67;1708968;84;21503;-70
2022/09/01 04:15:18;;;;;;;4.85;2.92;;;;;;;16.43;73.95;99356.82;1688184;84;21054;-71
2022/09/01 04:18:08;;;;;;;7.60;4.05;;;;;;;16.42;73.28;99349.89;1647410;86;21487;-70
2022/09/01 04:20:38;;;;;;;3.92;2.58;;;;;;;16.46;72.84;99351.37;1647281;87;21030;-70
2022/09/01 04:23:09;;;;;;;5.65;3.22;;;;;;;16.64;72.16;99341.43;1708546;83;21138;-71
2022/09/01 04:25:32;;;;;;;7.90;3.40;;;;;;;16.95;70.39;99341.49;1707715;83;21067;-70
2022/09/01 04:28:01;;;;;;;4.85;2.98;;;;;;;17.29;69.44;99340.42;1647546;87;21558;-71
2022/09/01 04:30:30;;;;;;;3.87;2.98;;;;;;;17.49;67.91;99343.31;1708944;84;21086;-71
2022/09/01 04:32:55;;;;;;;5.97;3.67;;;;;;;17.60;67.23;99349.09;1708883;83;21428;-70
2022/09/01 04:35:31;;;;;;;3.20;2.75;;;;;;;17.66;66.32;99344.75;1647528;86;21115;-69
2022/09/01 04:37:52;;;;;;;6.78;3.52;;;;;;;17.54;66.09;99349.09;1646370;87;21012;-70
2022/09/01 04:40:22;;;;;;;6.15;2.90;;;;;;;17.44;66.61;99345.42;1709044;84;21115;-71
2022/09/01 04:42:48;;;;;;;4.72;3.45;;;;;;;17.44;66.81;99341.48;1708803;84;21042;-72
2022/09/01 04:45:16;;;;;;;7.17;2.95;;;;;;;17.42;66.89;99345.16;1647529;87;20970;-71
2022/09/01 04:47:44;;;;;;;8.35;3.35;;;;;;;17.47;66.46;99341.27;1708903;84;21463;-72
2022/09/01 04:50:16;;;;;;;4.30;3.17;;;;;;;17.64;66.37;99344.02;1708632;83;20967;-77
2022/09/01 04:53:03;;;;;;;7.60;3.65;;;;;;;17.74;65.72;99337.16;1708989;84;21006;-71
2022/09/01 04:55:32;;;;;;;7.47;3.72;;;;;;;17.68;65.42;99344.17;1708798;84;21100;-70
2022/09/01 04:58:00;;;;;;;5.40;3.40;;;;;;;17.54;65.09;99341.67;1709032;84;21022;-70
2022/09/01 05:00:30;;;;;;;8.15;4.25;;;;;;;17.43;65.39;99339.80;1647583;87;21306;-70
2022/09/01 05:03:03;;;;;;;11.33;4.97;;;;;;;17.45;66.03;99336.59;1607843;87;21472;-71
2022/09/01 05:05:41;;;;;;;10.30;4.17;;;;;;;17.55;66.13;99336.31;1709115;84;20991;-71
2022/09/01 05:08:13;;;;;;;11.83;4.67;;;;;;;17.63;65.71;99335.73;1647473;86;21062;-70
2022/09/01 05:10:49;;;;;;;6.12;4.90;;;;;;;17.58;65.23;99341.82;1706427;83;21194;-71
2022/09/01 05:13:23;;;;;;;8.45;5.50;;;;;;;17.50;64.52;99340.20;1720182;82;22197;-71
2022/09/01 05:16:04;;;;;;;12.65;5.87;;;;;;;17.40;64.68;99342.64;1735540;82;20999;-71
2022/09/01 05:18:32;;;;;;;10.93;5.62;;;;;;;17.35;65.17;99341.31;1736681;82;21033;-70
2022/09/01 05:21:08;;;;;;;12.35;5.72;;;;;;;17.22;65.47;99338.22;1740111;81;21150;-72
2022/09/01 05:23:36;;;;;;;7.08;5.78;;;;;;;17.10;65.61;99341.73;1742771;81;21144;-71
2022/09/01 05:26:06;;;;;;;7.00;5.33;;;;;;;17.00;65.53;99352.49;1748188;81;21091;-71
2022/09/01 05:28:33;;;;;;;7.47;4.83;;;;;;;16.87;65.97;99347.73;1751730;81;20925;-70
2022/09/01 05:30:59;;;;;;;8.68;3.80;;;;;;;16.75;66.75;99345.50;1751796;81;21059;-71
2022/09/01 05:33:27;;;;;;;9.83;4.17;;;;;;;16.67;66.58;99350.42;1752125;81;21536;-72
2022/09/01 05:36:00;;;;;;;4.33;3.17;;;;;;;16.60;66.86;99352.20;1751780;81;21974;-70
2022/09/01 05:38:26;;;;;;;4.65;3.25;;;;;;;16.52;66.96;99360.63;1746987;81;21140;-69
2022/09/01 05:41:03;;;;;;;6.58;3.85;;;;;;;16.46;67.28;99361.03;1739590;81;21010;-71
2022/09/01 05:43:31;;;;;;;9.90;4.20;;;;;;;16.40;66.84;99364.05;1747635;81;20997;-72
2022/09/01 05:46:03;;;;;;;7.25;3.40;;;;;;;16.32;66.90;99359.34;1715905;81;38300;-72
2022/09/01 05:48:30;;;;;;;7.95;3.70;;;;;;;16.29;66.89;99363.47;1706381;81;21108;-70
2022/09/01 05:50:58;;;;;;;7.75;3.20;;;;;;;16.26;66.66;99360.20;1738386;81;21241;-70
2022/09/01 05:53:29;;;;;;;7.10;3.40;;;;;;;16.20;67.01;99360.97;1738655;80;21113;-71
2022/09/01 05:55:56;;;;;;;5.90;3.42;;;;;;;16.19;67.12;99365.01;1734774;81;21066;-69
2022/09/01 05:58:28;;;;;;;5.60;3.17;;;;;;;16.18;67.54;99360.73;1746867;81;21023;-70
2022/09/01 06:00:59;;;;;;;4.00;3.15;;;;;;;16.24;67.49;99358.15;1617639;86;21611;-70
2022/09/01 06:03:28;;;;;;;6.85;3.30;;;;;;;16.30;67.56;99359.91;1659149;86;21270;-71
2022/09/01 06:06:03;;;;;;;6.83;2.92;;;;;;;16.38;68.21;99358.09;1659230;86;20990;-70
2022/09/01 06:08:30;;;;;;;7.20;3.52;;;;;;;16.46;68.02;99361.88;1633434;86;21181;-70
2022/09/01 06:10:59;;;;;;;5.92;2.95;;;;;;;16.58;67.90;99362.84;1663555;85;21067;-72
2022/09/01 06:13:29;;;;;;;6.22;3.77;;;;;;;16.74;67.12;99356.10;1662824;86;21087;-74
2022/09/01 06:16:01;;;;;;;4.60;3.08;;;;;;;16.93;67.22;99361.77;1649197;86;21572;-71
2022/09/01 06:18:29;;;;;;;4.65;2.75;;;;;;;17.14;66.42;99363.38;1653354;86;21181;-71
2022/09/01 06:21:00;;;;;;;5.65;2.00;;;;;;;17.28;63.50;99363.72;1624692;88;21044;-71
2022/09/01 06:23:39;;;;;;;7.67;2.45;;;;;;;17.37;62.20;99365.23;1608355;87;21125;-76
2022/09/01 06:26:27;;;;;;;23.98;2.70;;;;;;;17.53;62.32;99363.66;1617962;88;21106;-71
2022/09/01 06:29:02;;;;;;;2.22;1.95;;;;;;;17.74;61.81;99372.67;1650796;86;21913;-72
2022/09/01 06:31:32;;;;;;;4.05;2.27;;;;;;;17.94;59.91;99370.38;1596904;86;21084;-72
2022/09/01 06:34:01;;;;;;;4.25;1.82;;;;;;;18.09;59.29;99376.66;1636310;86;21025;-74
2022/09/01 06:36:31;;;;;;;6.83;2.12;;;;;;;18.21;58.72;99378.38;1624587;88;21116;-74
2022/09/01 06:39:02;;;;;;;3.72;1.50;;;;;;;18.38;57.69;99375.83;1663576;85;21640;-73
2022/09/01 06:41:30;;;;;;;5.17;1.82;;;;;;;18.61;57.16;99377.20;1748154;81;22659;-73
2022/09/01 06:44:00;;;;;;;2.50;1.90;;;;;;;18.88;56.31;99376.42;1738661;82;20984;-74
2022/09/01 06:46:28;;;;;;;4.78;1.85;;;;;;;19.05;55.38;99379.91;1744178;82;21029;-73
2022/09/01 06:48:57;;;;;;;2.08;1.70;;;;;;;19.18;53.79;99384.58;1748155;82;21086;-71
2022/09/01 06:51:32;;;;;;;6.45;1.90;;;;;;;19.20;50.74;99386.62;1741591;82;21042;-72
2022/09/01 06:53:55;;;;;;;13.28;2.10;;;;;;;19.15;50.13;99386.64;1726909;82;21161;-72
2022/09/01 06:56:23;;;;;;;5.62;1.85;;;;;;;19.08;50.99;99385.42;1749103;82;21079;-73
2022/09/01 06:58:51;;;;;;;4.15;1.47;;;;;;;19.00;51.46;99379.89;1746544;81;20995;-74
2022/09/01 07:01:19;;;;;;;5.30;1.82;;;;;;;18.90;52.39;99385.06;1745491;82;21048;-73
2022/09/01 07:03:51;;;;;;;4.05;1.55;;;;;;;18.83;52.33;99387.79;1731688;82;22004;-72
2022/09/01 07:06:31;;;;;;;4.55;1.67;;;;;;;18.80;51.33;99391.50;1666393;83;21093;-73
2022/09/01 07:09:15;;;;;;;2.90;1.30;;;;;;;18.82;50.73;99393.54;1719790;82;21012;-71
2022/09/01 07:11:44;;;;;;;4.85;1.47;;;;;;;18.85;50.28;99399.05;1735359;81;21173;-71
2022/09/01 07:14:14;;;;;;;2.00;1.20;;;;;;;18.83;50.31;99392.58;1736872;82;21047;-69
2022/09/01 07:16:41;;;;;;;2.00;1.37;;;;;;;18.82;50.08;99396.66;1723548;82;21041;-70
2022/09/01 07:19:17;;;;;;;3.35;1.62;;;;;;;18.84;50.06;99387.67;1672485;83;21145;-70
2022/09/01 07:21:42;;;;;;;2.42;1.52;;;;;;;18.89;50.15;99388.65;1731858;82;21055;-71
2022/09/01 07:24:10;;;;;;;4.53;1.85;;;;;;;18.93;49.23;99398.84;1730688;82;21015;-70
2022/09/01 07:26:39;;;;;;;5.40;1.62;;;;;;;18.93;49.80;99396.69;1727166;82;21012;-70
2022/09/01 07:29:08;;;;;;;6.37;1.20;;;;;;;19.02;49.97;99392.00;1734524;81;21058;-72
2022/09/01 07:31:40;;;;;;;4.20;1.40;;;;;;;19.19;48.38;99395.48;1734619;82;21256;-72
2022/09/01 07:34:11;;;;;;;3.20;1.30;;;;;;;19.32;47.76;99394.06;1712447;82;21050;-71
2022/09/01 07:36:41;;;;;;;1.60;1.07;;;;;;;19.48;47.95;99393.69;1731693;82;21030;-71
2022/09/01 07:39:09;;;;;;;1.90;0.93;;;;;;;19.64;47.60;99396.80;1731828;82;21022;-72
2022/09/01 07:41:40;;;;;;;2.98;1.00;;;;;;;19.72;46.65;99398.84;1707555;83;21040;-70
2022/09/01 07:44:24;;;;;;;3.30;1.17;;;;;;;19.66;45.77;99392.73;1712760;83;21574;-70
2022/09/01 07:47:11;;;;;;;1.00;0.95;;;;;;;19.48;45.86;99395.00;1727431;82;21049;-71
2022/09/01 07:49:39;;;;;;;5.37;1.00;;;;;;;19.34;46.04;99396.10;1731714;82;21054;-71
2022/09/01 07:52:07;;;;;;;4.47;0.88;;;;;;;19.27;45.51;99401.01;1731668;82;21062;-71
2022/09/01 07:54:38;;;;;;;1.52;0.82;;;;;;;19.25;45.29;99400.77;1733652;82;21593;-70
2022/09/01 07:57:06;;;;;;;3.50;1.10;;;;;;;19.28;45.67;99386.03;1732859;82;21795;-71
2022/09/01 07:59:34;;;;;;;6.53;1.02;;;;;;;19.34;45.19;99393.47;1730745;82;21512;-71
2022/09/01 08:02:04;;;;;;;1.50;1.00;;;;;;;19.42;45.24;99394.16;1708072;82;21110;-70
2022/09/01 08:04:38;;;;;;;4.30;0.80;;;;;;;19.56;44.58;99392.16;1714138;82;20994;-70
2022/09/01 08:07:09;;;;;;;4.95;0.90;;;;;;;19.71;43.53;99404.60;1735218;82;21050;-70
2022/09/01 08:09:37;;;;;;;0.98;0.70;;;;;;;19.79;43.18;99394.25;1735101;82;21855;-71
2022/09/01 08:12:05;;;;;;;2.45;1.00;;;;;;;19.85;43.71;99383.69;1734856;82;21485;-71
2022/09/01 08:14:34;;;;;;;1.52;0.72;;;;;;;19.93;43.86;99386.08;1735540;82;20975;-72
2022/09/01 08:17:02;;;;;;;3.85;1.00;;;;;;;19.97;43.04;99391.11;1734958;82;21291;-70
2022/09/01 08:19:30;;;;;;;3.80;1.00;;;;;;;20.00;43.27;99386.88;1714306;82;21529;-71
2022/09/01 08:22:07;;;;;;;1.65;0.88;;;;;;;20.06;43.64;99385.06;1733930;82;21294;-72
2022/09/01 08:24:51;;;;;;;;;;;;;;;20.13;43.68;99371.25;1735995;82;21022;-71
2022/09/01 08:27:18;;;;;;;1.98;0.95;;;;;;;20.25;42.67;99374.18;1735153;81;20203;-72
2022/09/01 08:29:45;;;;;;;2.47;1.00;;;;;;;20.32;42.48;99370.56;1734970;82;21502;-71
2022/09/01 08:32:12;;;;;;;2.83;0.90;;;;;;;20.39;41.86;99380.14;1713890;82;21060;-71
2022/09/01 08:34:39;;;;;;;4.65;1.42;;;;;;;20.47;41.25;99390.44;1735429;82;21229;-71
2022/09/01 08:37:06;;;;;;;1.72;0.90;;;;;;;20.54;41.29;99378.88;1737034;82;21120;-71
2022/09/01 08:39:33;;;;;;;2.00;0.85;;;;;;;20.59;41.75;99377.51;1714061;82;20996;-71
2022/09/01 08:42:18;;;;;;;3.90;1.10;;;;;;;20.68;41.63;99390.44;1695460;84;21095;-71
2022/09/01 08:44:59;;;;;;;3.87;0.90;;;;;;;20.78;41.16;99381.27;1733057;82;21037;-71
2022/09/01 08:47:26;;;;;;;3.75;1.07;;;;;;;20.83;41.39;99369.80;1695757;83;21111;-71
2022/09/01 08:49:56;;;;;;;2.47;0.93;;;;;;;20.82;41.65;99372.08;1733640;82;21170;-71
2022/09/01 08:52:34;;;;;;;4.12;1.35;;;;;;;20.79;40.85;99373.66;1696164;84;21059;-71
2022/09/01 08:55:26;;;;;;;12.33;1.62;;;;;;;20.75;40.55;99382.84;1721254;82;21092;-71
2022/09/01 08:57:56;;;;;;;3.25;0.95;;;;;;;20.76;41.64;99371.30;1725118;82;21113;-70
2022/09/01 09:00:27;;;;;;;7.37;1.17;;;;;;;20.82;40.49;99374.73;1732405;82;21146;-71
2022/09/01 09:03:30;;;;;;;3.05;1.32;;;;;;;20.77;40.00;99380.91;1730721;82;20881;-70
2022/09/01 09:06:03;;;;;;;2.70;1.05;;;;;;;20.73;40.30;99384.77;1684498;82;20978;-70
2022/09/01 09:08:44;;;;;;;1.05;0.88;;;;;;;20.75;40.00;99378.88;1713485;83;21038;-71
2022/09/01 09:11:39;;;;;;;2.85;1.27;;;;;;;20.85;39.32;99377.95;1713372;83;21568;-70
2022/09/01 09:14:26;;;;;;;2.77;1.55;;;;;;;20.97;39.00;99368.16;1720366;82;21568;-71
2022/09/01 09:16:55;;;;;;;6.85;1.20;;;;;;;21.07;39.49;99371.66;1657038;84;21057;-72
2022/09/01 09:19:38;;;;;;;2.00;1.32;;;;;;;21.09;38.87;99375.50;1695783;84;22176;-71
2022/09/01 09:22:09;;;;;;;2.70;2.05;;;;;;;20.95;38.57;99364.80;1694994;84;21053;-71
2022/09/01 09:24:54;;;;;;;2.58;1.60;;;;;;;20.83;39.47;99362.70;1696590;84;21584;-71
2022/09/01 09:27:31;;;;;;;3.58;2.20;;;;;;;20.80;39.66;99359.48;1696331;84;21827;-71
2022/09/01 09:30:03;;;;;;;4.20;2.27;;;;;;;20.79;40.00;99358.64;1696382;84;21089;-71
2022/09/01 09:32:48;;;;;;;3.70;1.40;;;;;;;20.85;39.16;99357.29;1696261;84;21053;-72
2022/09/01 09:35:20;;;;;;;1.42;1.05;;;;;;;20.88;38.61;99347.30;1695345;84;21108;-71
2022/09/01 09:37:46;;;;;;;2.05;1.22;;;;;;;20.90;38.20;99349.33;1691619;84;21104;-70
2022/09/01 09:40:23;;;;;;;4.80;1.57;;;;;;;20.96;38.55;99352.77;1697000;84;21157;-71
2022/09/01 09:43:00;;;;;;;2.95;1.30;;;;;;;21.08;38.91;99357.95;1692959;84;21080;-71
2022/09/01 09:45:35;;;;;;;3.15;1.02;;;;;;;21.17;38.06;99368.59;1696953;84;21040;-73
2022/09/01 09:48:27;;;;;;;3.50;1.00;;;;;;;21.19;36.85;99364.46;1696312;84;21147;-72
2022/09/01 09:50:56;;;;;;;2.72;0.98;;;;;;;21.10;36.38;99363.47;1690205;83;21108;-73
2022/09/01 09:53:35;;;;;;;3.60;1.05;;;;;;;21.02;36.12;99363.28;1697057;84;21148;-72
2022/09/01 09:56:23;;;;;;;2.10;1.37;;;;;;;20.97;36.37;99361.55;1695826;84;21029;-71
2022/09/01 09:58:49;;;;;;;3.77;0.90;;;;;;;21.02;36.48;99356.67;1697107;84;21105;-71
2022/09/01 10:01:24;;;;;;;1.52;0.60;;;;;;;21.13;35.34;99357.08;1696822;84;21545;-72
2022/09/01 10:03:58;;;;;;;0.78;0.60;;;;;;;21.12;35.11;99364.17;1697178;84;21060;-71
2022/09/01 10:06:40;;;;;;;5.95;1.20;;;;;;;21.02;34.67;99371.22;1706506;83;21979;-70
2022/09/01 10:09:25;;;;;;;4.30;1.20;;;;;;;20.92;36.46;99366.38;1712588;83;21558;-71
2022/09/01 10:11:54;;;;;;;1.70;1.60;;;;;;;20.82;36.99;99375.56;1697743;83;21563;-73
2022/09/01 10:14:51;;;;;;;2.30;1.20;;;;;;;20.81;36.77;99373.89;1697078;84;21469;-71
2022/09/01 10:17:33;;;;;;;4.10;1.00;;;;;;;20.87;36.25;99355.35;1709823;82;21050;-71
2022/09/01 10:20:09;;;;;;;4.35;1.20;;;;;;;20.97;35.85;99343.03;1702694;84;21264;-71
2022/09/01 10:22:38;;;;;;;2.15;1.10;;;;;;;21.11;36.25;99343.99;1724861;82;21472;-71
2022/09/01 10:25:08;;;;;;;1.42;0.95;;;;;;;21.20;35.68;99356.91;1739022;82;21148;-71
2022/09/01 10:27:40;;;;;;;1.70;1.40;;;;;;;21.21;35.72;99348.01;1738087;82;21046;-70
2022/09/01 10:30:17;;;;;;;4.17;1.70;;;;;;;21.20;35.31;99344.53;1720398;82;21099;-71
2022/09/01 10:32:51;;;;;;;4.47;1.60;;;;;;;21.12;35.36;99341.70;1738457;82;21181;-73
2022/09/01 10:35:33;;;;;;;2.27;1.45;;;;;;;21.18;35.58;99350.40;1734364;82;21126;-73
2022/09/01 10:38:08;;;;;;;5.92;2.65;;;;;;;21.27;35.17;99347.00;1733658;82;21042;-73
2022/09/01 10:40:39;;;;;;;4.10;2.60;;;;;;;21.37;36.10;99352.34;1732286;82;21530;-74
2022/09/01 10:43:41;;;;;;;4.25;2.45;;;;;;;21.31;36.59;99358.99;1732498;82;21033;-71
2022/09/01 10:46:26;;;;;;;5.58;2.65;;;;;;;21.20;36.10;99353.78;1671931;85;21242;-72
2022/09/01 10:48:58;;;;;;;4.70;3.50;;;;;;;21.13;36.50;99357.92;1728582;82;21063;-71
2022/09/01 10:51:32;;;;;;;7.47;2.67;;;;;;;21.10;36.67;99354.70;1663341;85;21049;-72
2022/09/01 10:53:59;;;;;;;5.17;2.40;;;;;;;21.12;36.72;99348.31;1670834;85;21526;-71
2022/09/01 10:56:43;;;;;;;3.40;3.10;;;;;;;21.19;36.68;99353.40;1730240;82;21098;-72
2022/09/01 10:59:24;;;;;;;4.70;2.35;;;;;;;21.22;36.50;99351.84;1729858;82;21817;-71
2022/09/01 11:01:57;;;;;;;2.65;2.22;;;;;;;21.19;36.09;99353.87;1695022;83;21715;-72
2022/09/01 11:04:42;;;;;;;4.95;2.35;;;;;;;21.17;34.98;99350.56;1733650;82;21585;-72
2022/09/01 11:07:31;;;;;;;9.90;5.50;;;;;;;21.18;35.04;99343.78;1733575;82;21125;-72
2022/09/01 11:10:25;;;;;;;6.55;4.55;;;;;;;21.20;35.34;99334.44;1733742;82;21018;-72
2022/09/01 11:13:32;;;;;;;6.28;2.87;;;;;;;21.26;35.40;99336.55;1695853;83;21772;-70
2022/09/01 11:16:28;;;;;;;5.05;3.45;;;;;;;21.35;34.96;99335.75;1693060;84;21146;-71
2022/09/01 11:18:58;;;;;;;11.05;3.30;;;;;;;21.48;35.75;99332.37;1733234;82;21078;-71
2022/09/01 11:21:34;;;;;;;2.98;2.45;;;;;;;21.63;36.04;99321.73;1731335;82;21110;-71
2022/09/01 11:24:48;;;;;;;5.17;2.47;;;;;;;21.79;35.17;99331.78;1695986;83;21079;-70
2022/09/01 11:27:33;;;;;;;4.53;2.58;;;;;;;21.91;35.81;99334.66;1726534;82;21071;-71
2022/09/01 11:30:11;;;;;;;6.25;2.33;;;;;;;22.10;34.80;99333.02;1686798;84;21128;-71
2022/09/01 11:32:41;;;;;;;5.03;2.45;;;;;;;22.21;34.28;99336.34;1623678;88;21100;-70
2022/09/01 11:35:25;;;;;;;5.10;1.60;;;;;;;22.23;34.18;99338.37;1623634;88;21233;-71
2022/09/01 11:38:03;;;;;;;3.52;1.80;;;;;;;22.17;34.08;99334.14;1622668;88;21104;-72
2022/09/01 11:40:44;;;;;;;3.30;1.60;;;;;;;22.09;33.67;99322.08;1622944;88;21269;-76
2022/09/01 11:43:14;;;;;;;3.05;1.27;;;;;;;22.03;33.91;99332.73;1624145;88;21691;-75
2022/09/01 11:46:17;;;;;;;1.62;1.20;;;;;;;21.93;33.68;99325.26;1623680;88;21227;-75
2022/09/01 11:48:51;;;;;;;5.72;1.60;;;;;;;21.92;33.22;99320.45;1618766;88;21520;-73
2022/09/01 11:51:28;;;;;;;5.15;1.12;;;;;;;22.00;33.61;99321.09;1618665;88;21569;-75
2022/09/01 11:53:59;;;;;;;1.50;1.10;;;;;;;22.06;34.07;99331.13;1593497;88;21109;-72
2022/09/01 11:56:27;;;;;;;4.58;1.12;;;;;;;22.15;33.41;99325.50;1638518;82;21265;-74
2022/09/01 11:58:55;;;;;;;1.32;1.12;;;;;;;22.25;33.15;99319.69;1721937;82;20932;-75
2022/09/01 12:01:33;;;;;;;3.08;1.45;;;;;;;22.33;32.79;99314.53;1743552;82;21027;-74